sensor_id;sensor_type;location;lat;lon;timestamp;pressure;altitude;pressure_sealevel;temperature;humidity
23229;BME280;11783;50.350;6.576;2023-04-15T00:00:20;95347.28;;;4.64;69.84
23229;BME280;11783;50.350;6.576;2023-04-15T00:02:46;95345.56;;;4.57;69.23
23229;BME280;11783;50.350;6.576;2023-04-15T00:05:12;95342.59;;;4.54;69.81
23229;BME280;11783;50.350;6.576;2023-04-15T00:07:37;95341.78;;;4.53;69.40
23229;BME280;11783;50.350;6.576;2023-04-15T00:10:05;95338.00;;;4.49;69.69
23229;BME280;11783;50.350;6.576;2023-04-15T00:12:30;95346.78;;;4.43;70.73
23229;BME280;11783;50.350;6.576;2023-04-15T00:14:56;95343.00;;;4.39;70.59
23229;BME280;11783;50.350;6.576;2023-04-15T00:17:23;95343.56;;;4.30;70.19
23229;BME280;11783;50.350;6.576;2023-04-15T00:19:48;95338.84;;;4.20;70.34
23229;BME280;11783;50.350;6.576;2023-04-15T00:22:14;95341.00;;;4.11;71.07
23229;BME280;11783;50.350;6.576;2023-04-15T00:24:39;95344.94;;;3.90;71.84
23229;BME280;11783;50.350;6.576;2023-04-15T00:27:05;95342.91;;;3.74;72.56
23229;BME280;11783;50.350;6.576;2023-04-15T00:29:30;95353.72;;;3.66;72.55
23229;BME280;11783;50.350;6.576;2023-04-15T00:31:56;95351.03;;;3.73;72.34
23229;BME280;11783;50.350;6.576;2023-04-15T00:34:22;95341.91;;;3.75;71.96
23229;BME280;11783;50.350;6.576;2023-04-15T00:36:48;95336.41;;;3.77;71.96
23229;BME280;11783;50.350;6.576;2023-04-15T00:39:14;95336.63;;;3.75;71.95
23229;BME280;11783;50.350;6.576;2023-04-15T00:41:40;95337.22;;;3.77;72.06
23229;BME280;11783;50.350;6.576;2023-04-15T00:44:17;95331.16;;;3.77;72.08
23229;BME280;11783;50.350;6.576;2023-04-15T00:46:46;95332.75;;;3.78;72.05
23229;BME280;11783;50.350;6.576;2023-04-15T00:49:12;95334.25;;;3.74;71.52
23229;BME280;11783;50.350;6.576;2023-04-15T00:51:38;95330.34;;;3.76;71.55
23229;BME280;11783;50.350;6.576;2023-04-15T00:54:04;95326.94;;;3.76;71.95
23229;BME280;11783;50.350;6.576;2023-04-15T00:56:30;95328.38;;;3.72;71.76
23229;BME280;11783;50.350;6.576;2023-04-15T00:58:57;95326.88;;;3.64;72.17
23229;BME280;11783;50.350;6.576;2023-04-15T01:01:24;95327.59;;;3.53;72.34
23229;BME280;11783;50.350;6.576;2023-04-15T01:03:50;95332.50;;;3.49;72.33
23229;BME280;11783;50.350;6.576;2023-04-15T01:06:16;95319.59;;;3.48;72.26
23229;BME280;11783;50.350;6.576;2023-04-15T01:08:42;95324.25;;;3.46;72.45
23229;BME280;11783;50.350;6.576;2023-04-15T01:11:08;95325.06;;;3.46;72.06
23229;BME280;11783;50.350;6.576;2023-04-15T01:13:35;95321.84;;;3.44;72.33
23229;BME280;11783;50.350;6.576;2023-04-15T01:16:01;95321.06;;;3.44;72.37
23229;BME280;11783;50.350;6.576;2023-04-15T01:18:27;95320.34;;;3.37;72.85
23229;BME280;11783;50.350;6.576;2023-04-15T01:20:53;95318.22;;;3.27;73.28
23229;BME280;11783;50.350;6.576;2023-04-15T01:23:20;95307.22;;;3.18;73.26
23229;BME280;11783;50.350;6.576;2023-04-15T01:25:48;95312.31;;;3.13;73.15
23229;BME280;11783;50.350;6.576;2023-04-15T01:28:13;95315.72;;;3.14;73.56
23229;BME280;11783;50.350;6.576;2023-04-15T01:30:38;95309.91;;;3.12;73.28
23229;BME280;11783;50.350;6.576;2023-04-15T01:33:04;95314.44;;;3.04;74.93
23229;BME280;11783;50.350;6.576;2023-04-15T01:35:29;95312.16;;;2.90;76.45
23229;BME280;11783;50.350;6.576;2023-04-15T01:38:02;95318.50;;;2.82;75.53
23229;BME280;11783;50.350;6.576;2023-04-15T01:40:29;95315.69;;;2.77;75.38
23229;BME280;11783;50.350;6.576;2023-04-15T01:42:55;95313.50;;;2.74;75.15
23229;BME280;11783;50.350;6.576;2023-04-15T01:45:20;95308.81;;;2.58;78.52
23229;BME280;11783;50.350;6.576;2023-04-15T01:47:45;95304.28;;;2.47;77.58
23229;BME280;11783;50.350;6.576;2023-04-15T01:50:11;95311.78;;;2.43;77.18
23229;BME280;11783;50.350;6.576;2023-04-15T01:52:37;95311.13;;;2.48;76.79
23229;BME280;11783;50.350;6.576;2023-04-15T01:55:03;95309.53;;;2.47;76.25
23229;BME280;11783;50.350;6.576;2023-04-15T01:57:28;95310.31;;;2.47;76.23
23229;BME280;11783;50.350;6.576;2023-04-15T01:59:53;95304.28;;;2.47;76.25
23229;BME280;11783;50.350;6.576;2023-04-15T02:02:19;95303.28;;;2.41;76.69
23229;BME280;11783;50.350;6.576;2023-04-15T02:04:44;95295.88;;;2.38;76.55
23229;BME280;11783;50.350;6.576;2023-04-15T02:07:09;95292.88;;;2.34;76.73
23229;BME280;11783;50.350;6.576;2023-04-15T02:09:35;95298.91;;;2.35;77.37
23229;BME280;11783;50.350;6.576;2023-04-15T02:12:00;95297.75;;;2.31;77.45
23229;BME280;11783;50.350;6.576;2023-04-15T02:14:25;95294.47;;;2.35;77.04
23229;BME280;11783;50.350;6.576;2023-04-15T02:16:51;95297.75;;;2.31;76.56
23229;BME280;11783;50.350;6.576;2023-04-15T02:19:16;95302.19;;;2.30;77.04
23229;BME280;11783;50.350;6.576;2023-04-15T02:21:42;95304.22;;;2.28;76.76
23229;BME280;11783;50.350;6.576;2023-04-15T02:24:07;95312.03;;;2.10;81.01
23229;BME280;11783;50.350;6.576;2023-04-15T02:26:33;95307.34;;;1.87;81.54
23229;BME280;11783;50.350;6.576;2023-04-15T02:28:58;95312.31;;;1.57;84.01
23229;BME280;11783;50.350;6.576;2023-04-15T02:31:24;95313.22;;;1.38;85.94
23229;BME280;11783;50.350;6.576;2023-04-15T02:33:50;95306.72;;;1.54;83.21
23229;BME280;11783;50.350;6.576;2023-04-15T02:36:15;95306.06;;;1.58;81.24
23229;BME280;11783;50.350;6.576;2023-04-15T02:38:41;95306.66;;;1.60;81.25
23229;BME280;11783;50.350;6.576;2023-04-15T02:41:11;95313.88;;;1.71;81.07
23229;BME280;11783;50.350;6.576;2023-04-15T02:43:36;95313.81;;;1.78;80.36
23229;BME280;11783;50.350;6.576;2023-04-15T02:46:04;95313.88;;;1.65;83.77
23229;BME280;11783;50.350;6.576;2023-04-15T02:48:29;95312.38;;;1.50;83.66
23229;BME280;11783;50.350;6.576;2023-04-15T02:51:16;95310.78;;;1.43;84.32
23229;BME280;11783;50.350;6.576;2023-04-15T02:53:44;95322.13;;;1.30;85.36
23229;BME280;11783;50.350;6.576;2023-04-15T02:56:09;95318.09;;;1.28;84.24
23229;BME280;11783;50.350;6.576;2023-04-15T02:58:36;95318.69;;;1.30;83.09
23229;BME280;11783;50.350;6.576;2023-04-15T03:01:01;95319.72;;;1.22;85.42
23229;BME280;11783;50.350;6.576;2023-04-15T03:03:26;95315.97;;;0.98;87.95
23229;BME280;11783;50.350;6.576;2023-04-15T03:05:52;95320.81;;;0.88;87.81
23229;BME280;11783;50.350;6.576;2023-04-15T03:08:18;95314.00;;;0.80;88.48
23229;BME280;11783;50.350;6.576;2023-04-15T03:10:45;95313.19;;;0.86;88.12
23229;BME280;11783;50.350;6.576;2023-04-15T03:13:11;95317.78;;;0.91;86.00
23229;BME280;11783;50.350;6.576;2023-04-15T03:15:37;95324.84;;;0.97;84.58
23229;BME280;11783;50.350;6.576;2023-04-15T03:18:02;95316.16;;;1.03;83.98
23229;BME280;11783;50.350;6.576;2023-04-15T03:20:28;95319.53;;;1.10;83.34
23229;BME280;11783;50.350;6.576;2023-04-15T03:22:53;95319.53;;;1.17;82.14
23229;BME280;11783;50.350;6.576;2023-04-15T03:25:18;95325.56;;;1.24;81.99
23229;BME280;11783;50.350;6.576;2023-04-15T03:27:44;95319.50;;;1.30;81.54
23229;BME280;11783;50.350;6.576;2023-04-15T03:30:10;95319.31;;;1.32;80.90
23229;BME280;11783;50.350;6.576;2023-04-15T03:32:36;95321.72;;;1.33;83.17
23229;BME280;11783;50.350;6.576;2023-04-15T03:35:01;95324.72;;;1.37;81.15
23229;BME280;11783;50.350;6.576;2023-04-15T03:37:27;95325.72;;;1.36;80.97
23229;BME280;11783;50.350;6.576;2023-04-15T03:39:52;95320.47;;;1.36;80.55
23229;BME280;11783;50.350;6.576;2023-04-15T03:42:18;95328.13;;;1.37;80.80
23229;BME280;11783;50.350;6.576;2023-04-15T03:44:43;95334.97;;;1.38;80.80
23229;BME280;11783;50.350;6.576;2023-04-15T03:47:08;95328.75;;;1.33;81.71
23229;BME280;11783;50.350;6.576;2023-04-15T03:49:35;95327.00;;;1.13;83.70
23229;BME280;11783;50.350;6.576;2023-04-15T03:52:00;95333.25;;;1.06;84.91
23229;BME280;11783;50.350;6.576;2023-04-15T03:54:26;95335.09;;;0.99;85.77
23229;BME280;11783;50.350;6.576;2023-04-15T03:56:51;95342.97;;;0.85;87.26
23229;BME280;11783;50.350;6.576;2023-04-15T03:59:16;95344.19;;;0.83;86.48
23229;BME280;11783;50.350;6.576;2023-04-15T04:01:42;95348.22;;;0.79;86.36
23229;BME280;11783;50.350;6.576;2023-04-15T04:04:07;95353.25;;;0.80;85.09
23229;BME280;11783;50.350;6.576;2023-04-15T04:06:33;95357.44;;;0.88;84.22
23229;BME280;11783;50.350;6.576;2023-04-15T04:08:58;95351.59;;;0.93;84.09
23229;BME280;11783;50.350;6.576;2023-04-15T04:11:24;95353.63;;;0.97;84.05
23229;BME280;11783;50.350;6.576;2023-04-15T04:13:49;95362.25;;;0.91;85.78
23229;BME280;11783;50.350;6.576;2023-04-15T04:16:14;95361.88;;;0.81;87.75
23229;BME280;11783;50.350;6.576;2023-04-15T04:18:40;95359.88;;;0.76;87.11
23229;BME280;11783;50.350;6.576;2023-04-15T04:21:05;95356.47;;;0.63;89.38
23229;BME280;11783;50.350;6.576;2023-04-15T04:23:31;95356.69;;;0.61;89.07
23229;BME280;11783;50.350;6.576;2023-04-15T04:25:57;95364.72;;;0.59;88.80
23229;BME280;11783;50.350;6.576;2023-04-15T04:28:22;95362.91;;;0.47;91.22
23229;BME280;11783;50.350;6.576;2023-04-15T04:30:48;95366.75;;;0.38;92.61
23229;BME280;11783;50.350;6.576;2023-04-15T04:33:13;95363.13;;;0.39;90.53
23229;BME280;11783;50.350;6.576;2023-04-15T04:35:38;95363.31;;;0.24;92.85
23229;BME280;11783;50.350;6.576;2023-04-15T04:38:04;95373.31;;;0.14;93.43
23229;BME280;11783;50.350;6.576;2023-04-15T04:40:30;95374.13;;;0.14;91.25
23229;BME280;11783;50.350;6.576;2023-04-15T04:42:55;95373.13;;;0.15;91.63
23229;BME280;11783;50.350;6.576;2023-04-15T04:45:20;95383.59;;;0.22;90.16
23229;BME280;11783;50.350;6.576;2023-04-15T04:47:46;95385.41;;;0.21;89.92
23229;BME280;11783;50.350;6.576;2023-04-15T04:50:12;95380.97;;;0.15;92.13
23229;BME280;11783;50.350;6.576;2023-04-15T04:52:38;95388.63;;;0.23;90.16
23229;BME280;11783;50.350;6.576;2023-04-15T04:55:03;95385.81;;;0.32;88.63
23229;BME280;11783;50.350;6.576;2023-04-15T04:57:29;95388.63;;;0.37;86.98
23229;BME280;11783;50.350;6.576;2023-04-15T04:59:55;95384.44;;;0.42;87.58
23229;BME280;11783;50.350;6.576;2023-04-15T05:02:20;95391.25;;;0.43;87.46
23229;BME280;11783;50.350;6.576;2023-04-15T05:04:46;95386.25;;;0.42;87.17
23229;BME280;11783;50.350;6.576;2023-04-15T05:07:11;95389.47;;;0.44;86.05
23229;BME280;11783;50.350;6.576;2023-04-15T05:09:37;95390.66;;;0.48;86.73
23229;BME280;11783;50.350;6.576;2023-04-15T05:12:05;95392.28;;;0.42;88.36
23229;BME280;11783;50.350;6.576;2023-04-15T05:14:31;95389.47;;;0.44;86.98
23229;BME280;11783;50.350;6.576;2023-04-15T05:16:57;95402.53;;;0.50;86.09
23229;BME280;11783;50.350;6.576;2023-04-15T05:19:22;95394.47;;;0.45;87.95
23229;BME280;11783;50.350;6.576;2023-04-15T05:21:48;95404.53;;;0.48;86.69
23229;BME280;11783;50.350;6.576;2023-04-15T05:24:13;95409.38;;;0.45;88.14
23229;BME280;11783;50.350;6.576;2023-04-15T05:26:38;95403.34;;;0.38;89.99
23229;BME280;11783;50.350;6.576;2023-04-15T05:29:04;95403.09;;;0.33;90.51
23229;BME280;11783;50.350;6.576;2023-04-15T05:31:29;95413.72;;;0.18;93.79
23229;BME280;11783;50.350;6.576;2023-04-15T05:33:55;95413.31;;;0.01;95.80
23229;BME280;11783;50.350;6.576;2023-04-15T05:36:20;95413.28;;;-0.06;96.14
23229;BME280;11783;50.350;6.576;2023-04-15T05:38:46;95416.75;;;0.15;93.27
23229;BME280;11783;50.350;6.576;2023-04-15T05:41:11;95414.34;;;0.13;94.49
23229;BME280;11783;50.350;6.576;2023-04-15T05:43:39;95418.34;;;0.03;95.97
23229;BME280;11783;50.350;6.576;2023-04-15T05:46:05;95421.16;;;0.01;97.11
23229;BME280;11783;50.350;6.576;2023-04-15T05:48:30;95428.34;;;-0.14;99.34
23229;BME280;11783;50.350;6.576;2023-04-15T05:50:56;95418.63;;;-0.27;100.00
23229;BME280;11783;50.350;6.576;2023-04-15T05:53:21;95423.38;;;-0.50;100.00
23229;BME280;11783;50.350;6.576;2023-04-15T05:55:47;95423.78;;;-0.47;100.00
23229;BME280;11783;50.350;6.576;2023-04-15T05:58:13;95426.50;;;-0.62;100.00
23229;BME280;11783;50.350;6.576;2023-04-15T06:00:38;95419.97;;;-0.38;100.00
23229;BME280;11783;50.350;6.576;2023-04-15T06:03:04;95434.75;;;-0.17;100.00
23229;BME280;11783;50.350;6.576;2023-04-15T06:05:30;95432.38;;;-0.05;100.00
23229;BME280;11783;50.350;6.576;2023-04-15T06:07:55;95430.81;;;0.14;100.00
23229;BME280;11783;50.350;6.576;2023-04-15T06:10:21;95428.38;;;0.06;100.00
23229;BME280;11783;50.350;6.576;2023-04-15T06:12:46;95432.50;;;-0.20;100.00
23229;BME280;11783;50.350;6.576;2023-04-15T06:15:11;95440.72;;;-0.29;100.00
23229;BME280;11783;50.350;6.576;2023-04-15T06:17:37;95437.97;;;-0.15;100.00
23229;BME280;11783;50.350;6.576;2023-04-15T06:20:03;95434.63;;;0.11;100.00
23229;BME280;11783;50.350;6.576;2023-04-15T06:22:28;95431.84;;;0.19;100.00
23229;BME280;11783;50.350;6.576;2023-04-15T06:24:54;95440.31;;;0.41;100.00
23229;BME280;11783;50.350;6.576;2023-04-15T06:27:19;95436.31;;;0.45;100.00
23229;BME280;11783;50.350;6.576;2023-04-15T06:29:45;95431.91;;;0.59;100.00
23229;BME280;11783;50.350;6.576;2023-04-15T06:32:11;95431.50;;;0.69;100.00
23229;BME280;11783;50.350;6.576;2023-04-15T06:34:37;95437.13;;;0.79;100.00
23229;BME280;11783;50.350;6.576;2023-04-15T06:37:02;95440.75;;;0.84;100.00
23229;BME280;11783;50.350;6.576;2023-04-15T06:39:28;95437.13;;;0.85;100.00
23229;BME280;11783;50.350;6.576;2023-04-15T06:41:53;95441.75;;;0.97;100.00
23229;BME280;11783;50.350;6.576;2023-04-15T06:44:18;95442.97;;;0.94;100.00
23229;BME280;11783;50.350;6.576;2023-04-15T06:46:44;95436.13;;;0.93;100.00
23229;BME280;11783;50.350;6.576;2023-04-15T06:49:09;95441.34;;;0.86;100.00
23229;BME280;11783;50.350;6.576;2023-04-15T06:51:35;95441.75;;;0.90;100.00
23229;BME280;11783;50.350;6.576;2023-04-15T06:54:01;95448.19;;;1.01;100.00
23229;BME280;11783;50.350;6.576;2023-04-15T06:56:30;95455.03;;;1.15;100.00
23229;BME280;11783;50.350;6.576;2023-04-15T06:58:55;95449.19;;;1.33;100.00
23229;BME280;11783;50.350;6.576;2023-04-15T07:01:21;95450.72;;;1.47;100.00
23229;BME280;11783;50.350;6.576;2023-04-15T07:03:46;95452.34;;;1.55;100.00
23229;BME280;11783;50.350;6.576;2023-04-15T07:06:12;95444.25;;;1.69;100.00
23229;BME280;11783;50.350;6.576;2023-04-15T07:08:37;95446.03;;;1.75;100.00
23229;BME280;11783;50.350;6.576;2023-04-15T07:11:03;95451.25;;;1.82;100.00
23229;BME280;11783;50.350;6.576;2023-04-15T07:13:30;95450.59;;;1.93;100.00
23229;BME280;11783;50.350;6.576;2023-04-15T07:15:55;95451.56;;;1.99;100.00
23229;BME280;11783;50.350;6.576;2023-04-15T07:18:21;95458.59;;;2.11;100.00
23229;BME280;11783;50.350;6.576;2023-04-15T07:20:46;95462.56;;;2.27;100.00
23229;BME280;11783;50.350;6.576;2023-04-15T07:23:12;95462.72;;;2.32;100.00
23229;BME280;11783;50.350;6.576;2023-04-15T07:25:37;95460.25;;;2.44;100.00
23229;BME280;11783;50.350;6.576;2023-04-15T07:28:03;95461.38;;;2.55;100.00
23229;BME280;11783;50.350;6.576;2023-04-15T07:30:28;95459.91;;;2.65;100.00
23229;BME280;11783;50.350;6.576;2023-04-15T07:32:54;95462.41;;;2.79;100.00
23229;BME280;11783;50.350;6.576;2023-04-15T07:35:20;95466.13;;;2.96;100.00
23229;BME280;11783;50.350;6.576;2023-04-15T07:37:46;95472.22;;;3.15;100.00
23229;BME280;11783;50.350;6.576;2023-04-15T07:40:11;95471.06;;;3.36;100.00
23229;BME280;11783;50.350;6.576;2023-04-15T07:42:38;95473.88;;;3.59;100.00
23229;BME280;11783;50.350;6.576;2023-04-15T07:45:04;95484.09;;;3.85;100.00
23229;BME280;11783;50.350;6.576;2023-04-15T07:47:31;95481.41;;;4.10;100.00
23229;BME280;11783;50.350;6.576;2023-04-15T07:49:56;95485.63;;;4.30;100.00
23229;BME280;11783;50.350;6.576;2023-04-15T07:52:21;95488.13;;;4.54;100.00
23229;BME280;11783;50.350;6.576;2023-04-15T07:54:47;95479.50;;;4.77;100.00
23229;BME280;11783;50.350;6.576;2023-04-15T07:57:12;95488.47;;;5.00;100.00
23229;BME280;11783;50.350;6.576;2023-04-15T07:59:38;95477.41;;;5.33;100.00
23229;BME280;11783;50.350;6.576;2023-04-15T08:02:03;95486.81;;;5.64;100.00
23229;BME280;11783;50.350;6.576;2023-04-15T08:04:29;95484.06;;;5.82;100.00
23229;BME280;11783;50.350;6.576;2023-04-15T08:06:55;95484.50;;;6.14;100.00
23229;BME280;11783;50.350;6.576;2023-04-15T08:09:20;95490.28;;;6.40;100.00
23229;BME280;11783;50.350;6.576;2023-04-15T08:11:48;95486.19;;;6.60;100.00
23229;BME280;11783;50.350;6.576;2023-04-15T08:14:13;95491.28;;;6.79;100.00
23229;BME280;11783;50.350;6.576;2023-04-15T08:16:38;95501.63;;;6.97;98.85
23229;BME280;11783;50.350;6.576;2023-04-15T08:19:04;95497.06;;;6.92;94.64
23229;BME280;11783;50.350;6.576;2023-04-15T08:21:29;95499.16;;;6.90;95.79
23229;BME280;11783;50.350;6.576;2023-04-15T08:23:55;95504.69;;;7.06;98.11
23229;BME280;11783;50.350;6.576;2023-04-15T08:26:20;95505.59;;;7.28;99.06
23229;BME280;11783;50.350;6.576;2023-04-15T08:28:46;95507.78;;;7.48;96.27
23229;BME280;11783;50.350;6.576;2023-04-15T08:31:16;95510.16;;;7.66;97.37
23229;BME280;11783;50.350;6.576;2023-04-15T08:33:42;95508.88;;;7.85;91.96
23229;BME280;11783;50.350;6.576;2023-04-15T08:36:08;95519.31;;;7.97;83.92
23229;BME280;11783;50.350;6.576;2023-04-15T08:38:34;95524.19;;;8.22;81.63
23229;BME280;11783;50.350;6.576;2023-04-15T08:41:03;95528.81;;;8.54;81.44
23229;BME280;11783;50.350;6.576;2023-04-15T08:43:42;95528.72;;;8.92;82.34
23229;BME280;11783;50.350;6.576;2023-04-15T08:46:11;95525.81;;;9.16;73.57
23229;BME280;11783;50.350;6.576;2023-04-15T08:48:37;95526.94;;;9.25;71.13
23229;BME280;11783;50.350;6.576;2023-04-15T08:51:05;95533.22;;;9.46;71.77
23229;BME280;11783;50.350;6.576;2023-04-15T08:53:31;95540.63;;;9.76;69.89
23229;BME280;11783;50.350;6.576;2023-04-15T08:55:59;95543.13;;;9.92;68.70
23229;BME280;11783;50.350;6.576;2023-04-15T08:58:28;95543.41;;;9.96;65.90
23229;BME280;11783;50.350;6.576;2023-04-15T09:00:55;95542.34;;;9.92;67.46
23229;BME280;11783;50.350;6.576;2023-04-15T09:03:21;95539.44;;;9.98;67.12
23229;BME280;11783;50.350;6.576;2023-04-15T09:05:49;95553.50;;;9.94;65.88
23229;BME280;11783;50.350;6.576;2023-04-15T09:08:15;95560.78;;;10.14;68.34
23229;BME280;11783;50.350;6.576;2023-04-15T09:10:41;95549.53;;;10.39;68.96
23229;BME280;11783;50.350;6.576;2023-04-15T09:13:06;95560.25;;;10.54;67.99
23229;BME280;11783;50.350;6.576;2023-04-15T09:15:33;95561.63;;;10.67;67.79
23229;BME280;11783;50.350;6.576;2023-04-15T09:18:02;95568.81;;;10.66;67.25
23229;BME280;11783;50.350;6.576;2023-04-15T09:20:28;95572.00;;;10.63;68.36
23229;BME280;11783;50.350;6.576;2023-04-15T09:22:54;95575.19;;;10.65;64.02
23229;BME280;11783;50.350;6.576;2023-04-15T09:27:56;95582.84;;;11.19;65.19
23229;BME280;11783;50.350;6.576;2023-04-15T09:30:22;95588.88;;;10.99;66.51
23229;BME280;11783;50.350;6.576;2023-04-15T09:32:52;95584.44;;;11.25;68.02
23229;BME280;11783;50.350;6.576;2023-04-15T09:35:19;95591.38;;;11.51;65.69
23229;BME280;11783;50.350;6.576;2023-04-15T09:37:45;95598.88;;;11.75;65.94
23229;BME280;11783;50.350;6.576;2023-04-15T09:40:11;95597.31;;;11.79;62.28
23229;BME280;11783;50.350;6.576;2023-04-15T09:42:53;95594.66;;;11.94;63.03
23229;BME280;11783;50.350;6.576;2023-04-15T09:45:19;95593.84;;;12.04;64.55
23229;BME280;11783;50.350;6.576;2023-04-15T09:47:44;95597.81;;;12.27;60.30
23229;BME280;11783;50.350;6.576;2023-04-15T09:50:10;95602.63;;;12.20;58.95
23229;BME280;11783;50.350;6.576;2023-04-15T09:52:40;95612.72;;;12.38;58.15
23229;BME280;11783;50.350;6.576;2023-04-15T09:55:07;95611.69;;;12.19;57.93
23229;BME280;11783;50.350;6.576;2023-04-15T09:57:35;95619.16;;;12.06;55.53
23229;BME280;11783;50.350;6.576;2023-04-15T10:00:05;95617.28;;;12.22;58.46
23229;BME280;11783;50.350;6.576;2023-04-15T10:02:33;95615.94;;;12.20;52.71
23229;BME280;11783;50.350;6.576;2023-04-15T10:05:00;95615.66;;;12.41;54.07
23229;BME280;11783;50.350;6.576;2023-04-15T10:07:26;95620.94;;;12.62;53.95
23229;BME280;11783;50.350;6.576;2023-04-15T10:09:52;95635.63;;;12.64;51.83
23229;BME280;11783;50.350;6.576;2023-04-15T10:12:18;95631.41;;;12.28;49.98
23229;BME280;11783;50.350;6.576;2023-04-15T10:14:47;95638.84;;;12.26;49.31
23229;BME280;11783;50.350;6.576;2023-04-15T10:17:17;95639.66;;;12.26;49.80
23229;BME280;11783;50.350;6.576;2023-04-15T10:19:44;95636.19;;;12.36;52.38
23229;BME280;11783;50.350;6.576;2023-04-15T10:22:10;95639.38;;;12.43;53.64
23229;BME280;11783;50.350;6.576;2023-04-15T10:24:37;95636.44;;;12.65;54.40
23229;BME280;11783;50.350;6.576;2023-04-15T10:27:04;95640.41;;;12.57;51.02
23229;BME280;11783;50.350;6.576;2023-04-15T10:29:30;95638.28;;;12.69;55.23
23229;BME280;11783;50.350;6.576;2023-04-15T10:31:57;95638.81;;;12.61;51.37
23229;BME280;11783;50.350;6.576;2023-04-15T10:34:23;95647.34;;;12.58;51.58
23229;BME280;11783;50.350;6.576;2023-04-15T10:36:49;95648.16;;;12.59;48.68
23229;BME280;11783;50.350;6.576;2023-04-15T10:44:32;95658.31;;;12.31;55.76
23229;BME280;11783;50.350;6.576;2023-04-15T10:46:58;95664.72;;;12.15;52.33
23229;BME280;11783;50.350;6.576;2023-04-15T10:49:24;95668.44;;;12.19;54.48
23229;BME280;11783;50.350;6.576;2023-04-15T10:51:52;95673.47;;;12.00;53.90
23229;BME280;11783;50.350;6.576;2023-04-15T10:59:24;95672.16;;;12.43;54.36
23229;BME280;11783;50.350;6.576;2023-04-15T11:04:58;95673.47;;;12.41;58.26
23229;BME280;11783;50.350;6.576;2023-04-15T11:12:42;95683.63;;;12.24;56.29
23229;BME280;11783;50.350;6.576;2023-04-15T11:18:13;95678.28;;;12.34;56.16
23229;BME280;11783;50.350;6.576;2023-04-15T11:23:28;95691.59;;;12.39;52.13
23229;BME280;11783;50.350;6.576;2023-04-15T11:25:57;95690.00;;;12.43;51.92
23229;BME280;11783;50.350;6.576;2023-04-15T11:28:29;95696.13;;;12.64;53.48
23229;BME280;11783;50.350;6.576;2023-04-15T11:30:56;95696.66;;;12.66;50.45
23229;BME280;11783;50.350;6.576;2023-04-15T11:33:23;95704.13;;;12.64;48.15
23229;BME280;11783;50.350;6.576;2023-04-15T11:35:56;95703.31;;;12.63;48.05
23229;BME280;11783;50.350;6.576;2023-04-15T11:38:22;95704.69;;;12.51;48.94
23229;BME280;11783;50.350;6.576;2023-04-15T11:40:49;95710.25;;;12.44;48.28
23229;BME280;11783;50.350;6.576;2023-04-15T11:43:22;95715.84;;;12.63;50.61
23229;BME280;11783;50.350;6.576;2023-04-15T11:45:58;95708.94;;;12.57;53.50
23229;BME280;11783;50.350;6.576;2023-04-15T11:48:28;95718.78;;;12.41;51.00
23229;BME280;11783;50.350;6.576;2023-04-15T11:51:02;95708.66;;;12.38;52.02
23229;BME280;11783;50.350;6.576;2023-04-15T11:56:07;95715.06;;;12.72;52.21
23229;BME280;11783;50.350;6.576;2023-04-15T11:58:34;95711.56;;;12.82;53.68
23229;BME280;11783;50.350;6.576;2023-04-15T12:01:02;95716.88;;;13.02;55.17
23229;BME280;11783;50.350;6.576;2023-04-15T12:06:06;95712.63;;;13.01;55.25
23229;BME280;11783;50.350;6.576;2023-04-15T12:11:26;95729.84;;;13.45;53.61
23229;BME280;11783;50.350;6.576;2023-04-15T12:13:57;95735.75;;;13.16;54.45
23229;BME280;11783;50.350;6.576;2023-04-15T12:16:24;95740.78;;;13.43;53.11
23229;BME280;11783;50.350;6.576;2023-04-15T12:18:51;95738.66;;;13.35;53.07
23229;BME280;11783;50.350;6.576;2023-04-15T12:21:20;95747.72;;;13.49;53.34
23229;BME280;11783;50.350;6.576;2023-04-15T12:23:53;95744.41;;;13.78;51.83
23229;BME280;11783;50.350;6.576;2023-04-15T12:29:15;95750.00;;;13.76;53.25
23229;BME280;11783;50.350;6.576;2023-04-15T12:34:15;95750.19;;;13.90;53.72
23229;BME280;11783;50.350;6.576;2023-04-15T12:36:41;95758.44;;;13.93;52.14
23229;BME280;11783;50.350;6.576;2023-04-15T12:39:06;95762.00;;;13.79;52.61
23229;BME280;11783;50.350;6.576;2023-04-15T12:41:32;95757.66;;;13.98;56.44
23229;BME280;11783;50.350;6.576;2023-04-15T12:43:58;95770.66;;;14.10;52.80
23229;BME280;11783;50.350;6.576;2023-04-15T12:46:24;95771.28;;;14.41;54.70
23229;BME280;11783;50.350;6.576;2023-04-15T12:48:50;95771.88;;;14.33;52.09
23229;BME280;11783;50.350;6.576;2023-04-15T12:51:17;95774.84;;;14.26;50.24
23229;BME280;11783;50.350;6.576;2023-04-15T12:53:43;95774.84;;;14.26;50.32
23229;BME280;11783;50.350;6.576;2023-04-15T12:56:08;95783.56;;;14.42;49.91
23229;BME280;11783;50.350;6.576;2023-04-15T12:58:34;95785.94;;;14.48;53.04
23229;BME280;11783;50.350;6.576;2023-04-15T13:00:59;95790.59;;;14.72;52.41
23229;BME280;11783;50.350;6.576;2023-04-15T13:03:24;95795.22;;;14.95;53.08
23229;BME280;11783;50.350;6.576;2023-04-15T13:05:50;95790.75;;;14.85;51.97
23229;BME280;11783;50.350;6.576;2023-04-15T13:08:16;95799.84;;;14.90;51.96
23229;BME280;11783;50.350;6.576;2023-04-15T13:10:42;95801.53;;;14.75;52.66
23229;BME280;11783;50.350;6.576;2023-04-15T13:13:07;95807.19;;;14.69;51.21
23229;BME280;11783;50.350;6.576;2023-04-15T13:15:33;95819.25;;;14.66;51.56
23229;BME280;11783;50.350;6.576;2023-04-15T13:17:58;95817.53;;;14.80;52.66
23229;BME280;11783;50.350;6.576;2023-04-15T13:20:24;95822.38;;;14.78;53.64
23229;BME280;11783;50.350;6.576;2023-04-15T13:22:51;95816.16;;;14.88;51.83
23229;BME280;11783;50.350;6.576;2023-04-15T13:25:17;95821.41;;;14.64;50.65
23229;BME280;11783;50.350;6.576;2023-04-15T13:27:42;95824.53;;;14.76;53.38
23229;BME280;11783;50.350;6.576;2023-04-15T13:30:08;95824.31;;;14.68;54.24
23229;BME280;11783;50.350;6.576;2023-04-15T13:32:33;95832.00;;;14.79;51.83
23229;BME280;11783;50.350;6.576;2023-04-15T13:34:59;95835.00;;;15.07;52.57
23229;BME280;11783;50.350;6.576;2023-04-15T13:37:30;95834.75;;;15.03;52.23
23229;BME280;11783;50.350;6.576;2023-04-15T13:39:55;95843.28;;;15.05;53.70